sensor_id;sensor_type;location;lat;lon;timestamp;P1;durP1;ratioP1;P2;durP2;ratioP2
71435;SDS011;59251;51.326;12.370;2023-07-13T00:01:44;4.95;;;1.10;;
71435;SDS011;59251;51.326;12.370;2023-07-13T00:04:14;7.70;;;1.47;;
71435;SDS011;59251;51.326;12.370;2023-07-13T00:06:42;6.45;;;1.20;;
71435;SDS011;59251;51.326;12.370;2023-07-13T00:09:10;6.13;;;1.30;;
71435;SDS011;59251;51.326;12.370;2023-07-13T00:11:37;5.72;;;1.30;;
71435;SDS011;59251;51.326;12.370;2023-07-13T00:14:05;8.32;;;1.20;;
71435;SDS011;59251;51.326;12.370;2023-07-13T00:16:33;6.70;;;1.47;;
71435;SDS011;59251;51.326;12.370;2023-07-13T00:19:00;4.60;;;1.20;;
71435;SDS011;59251;51.326;12.370;2023-07-13T00:21:27;5.88;;;1.30;;
71435;SDS011;59251;51.326;12.370;2023-07-13T00:23:54;5.90;;;1.25;;
71435;SDS011;59251;51.326;12.370;2023-07-13T00:26:20;5.88;;;1.40;;
71435;SDS011;59251;51.326;12.370;2023-07-13T00:28:47;8.97;;;1.23;;
71435;SDS011;59251;51.326;12.370;2023-07-13T00:31:15;5.22;;;1.30;;
71435;SDS011;59251;51.326;12.370;2023-07-13T00:33:42;8.30;;;1.63;;
71435;SDS011;59251;51.326;12.370;2023-07-13T00:36:09;6.63;;;1.25;;
71435;SDS011;59251;51.326;12.370;2023-07-13T00:38:36;6.40;;;1.30;;
71435;SDS011;59251;51.326;12.370;2023-07-13T00:41:04;5.10;;;1.10;;
71435;SDS011;59251;51.326;12.370;2023-07-13T00:43:30;6.45;;;1.38;;
71435;SDS011;59251;51.326;12.370;2023-07-13T00:46:11;5.75;;;1.30;;
71435;SDS011;59251;51.326;12.370;2023-07-13T00:48:48;7.22;;;1.38;;
71435;SDS011;59251;51.326;12.370;2023-07-13T00:51:16;7.82;;;1.50;;
71435;SDS011;59251;51.326;12.370;2023-07-13T00:53:46;5.43;;;1.40;;
71435;SDS011;59251;51.326;12.370;2023-07-13T00:56:13;10.23;;;2.13;;
71435;SDS011;59251;51.326;12.370;2023-07-13T00:58:41;7.63;;;1.65;;
71435;SDS011;59251;51.326;12.370;2023-07-13T01:01:08;6.75;;;1.48;;
71435;SDS011;59251;51.326;12.370;2023-07-13T01:03:36;5.85;;;1.40;;
71435;SDS011;59251;51.326;12.370;2023-07-13T01:06:03;5.50;;;1.40;;
71435;SDS011;59251;51.326;12.370;2023-07-13T01:08:30;5.55;;;1.40;;
71435;SDS011;59251;51.326;12.370;2023-07-13T01:10:59;6.93;;;1.58;;
71435;SDS011;59251;51.326;12.370;2023-07-13T01:13:26;9.10;;;1.38;;
71435;SDS011;59251;51.326;12.370;2023-07-13T01:16:03;7.78;;;1.38;;
71435;SDS011;59251;51.326;12.370;2023-07-13T01:18:39;6.77;;;1.40;;
71435;SDS011;59251;51.326;12.370;2023-07-13T01:21:07;5.50;;;1.50;;
71435;SDS011;59251;51.326;12.370;2023-07-13T01:23:33;5.95;;;1.40;;
71435;SDS011;59251;51.326;12.370;2023-07-13T01:26:00;8.45;;;1.30;;
71435;SDS011;59251;51.326;12.370;2023-07-13T01:28:28;6.55;;;1.40;;
71435;SDS011;59251;51.326;12.370;2023-07-13T01:30:56;5.70;;;1.13;;
71435;SDS011;59251;51.326;12.370;2023-07-13T01:33:25;5.55;;;1.10;;
71435;SDS011;59251;51.326;12.370;2023-07-13T01:35:52;5.40;;;1.20;;
71435;SDS011;59251;51.326;12.370;2023-07-13T01:38:21;7.28;;;1.10;;
71435;SDS011;59251;51.326;12.370;2023-07-13T01:40:49;7.47;;;1.23;;
71435;SDS011;59251;51.326;12.370;2023-07-13T01:43:16;6.77;;;1.37;;
71435;SDS011;59251;51.326;12.370;2023-07-13T01:45:43;6.57;;;1.23;;
71435;SDS011;59251;51.326;12.370;2023-07-13T01:48:10;5.60;;;1.05;;
71435;SDS011;59251;51.326;12.370;2023-07-13T01:50:37;5.13;;;1.08;;
71435;SDS011;59251;51.326;12.370;2023-07-13T01:53:04;5.90;;;1.30;;
71435;SDS011;59251;51.326;12.370;2023-07-13T01:55:33;7.93;;;1.37;;
71435;SDS011;59251;51.326;12.370;2023-07-13T01:58:01;7.18;;;1.25;;
71435;SDS011;59251;51.326;12.370;2023-07-13T02:00:28;6.88;;;1.20;;
71435;SDS011;59251;51.326;12.370;2023-07-13T02:02:55;5.32;;;1.35;;
71435;SDS011;59251;51.326;12.370;2023-07-13T02:05:22;5.30;;;1.30;;
71435;SDS011;59251;51.326;12.370;2023-07-13T02:07:48;6.10;;;1.07;;
71435;SDS011;59251;51.326;12.370;2023-07-13T02:10:15;8.07;;;1.30;;
71435;SDS011;59251;51.326;12.370;2023-07-13T02:12:44;5.88;;;1.40;;
71435;SDS011;59251;51.326;12.370;2023-07-13T02:15:11;6.13;;;1.00;;
71435;SDS011;59251;51.326;12.370;2023-07-13T02:17:38;6.15;;;1.27;;
71435;SDS011;59251;51.326;12.370;2023-07-13T02:20:05;7.10;;;1.23;;
71435;SDS011;59251;51.326;12.370;2023-07-13T02:22:33;9.10;;;1.40;;
71435;SDS011;59251;51.326;12.370;2023-07-13T02:24:59;8.20;;;1.63;;
71435;SDS011;59251;51.326;12.370;2023-07-13T02:27:26;7.10;;;2.03;;
71435;SDS011;59251;51.326;12.370;2023-07-13T02:29:54;7.03;;;1.10;;
71435;SDS011;59251;51.326;12.370;2023-07-13T02:32:21;6.60;;;1.20;;
71435;SDS011;59251;51.326;12.370;2023-07-13T02:34:50;6.03;;;1.20;;
71435;SDS011;59251;51.326;12.370;2023-07-13T02:37:18;6.88;;;1.38;;
71435;SDS011;59251;51.326;12.370;2023-07-13T02:39:44;6.50;;;1.50;;
71435;SDS011;59251;51.326;12.370;2023-07-13T02:42:13;12.68;;;2.00;;
71435;SDS011;59251;51.326;12.370;2023-07-13T02:44:39;6.47;;;1.43;;
71435;SDS011;59251;51.326;12.370;2023-07-13T02:47:08;6.53;;;1.50;;
71435;SDS011;59251;51.326;12.370;2023-07-13T02:49:34;6.18;;;1.30;;
71435;SDS011;59251;51.326;12.370;2023-07-13T02:52:01;6.05;;;1.20;;
71435;SDS011;59251;51.326;12.370;2023-07-13T02:54:28;7.18;;;1.17;;
71435;SDS011;59251;51.326;12.370;2023-07-13T02:56:55;6.67;;;1.47;;
71435;SDS011;59251;51.326;12.370;2023-07-13T02:59:22;7.80;;;1.70;;
71435;SDS011;59251;51.326;12.370;2023-07-13T03:01:49;5.20;;;1.30;;
71435;SDS011;59251;51.326;12.370;2023-07-13T03:04:17;8.20;;;1.25;;
71435;SDS011;59251;51.326;12.370;2023-07-13T03:06:44;7.10;;;1.60;;
71435;SDS011;59251;51.326;12.370;2023-07-13T03:09:11;8.30;;;1.20;;
71435;SDS011;59251;51.326;12.370;2023-07-13T03:11:41;7.15;;;1.67;;
71435;SDS011;59251;51.326;12.370;2023-07-13T03:14:25;7.80;;;1.40;;
71435;SDS011;59251;51.326;12.370;2023-07-13T03:16:52;6.25;;;1.45;;
71435;SDS011;59251;51.326;12.370;2023-07-13T03:19:23;8.20;;;1.95;;
71435;SDS011;59251;51.326;12.370;2023-07-13T03:21:51;8.57;;;1.67;;
71435;SDS011;59251;51.326;12.370;2023-07-13T03:24:17;7.75;;;2.00;;
71435;SDS011;59251;51.326;12.370;2023-07-13T03:26:45;8.90;;;1.60;;
71435;SDS011;59251;51.326;12.370;2023-07-13T03:29:12;6.13;;;1.45;;
71435;SDS011;59251;51.326;12.370;2023-07-13T03:31:39;7.00;;;1.80;;
71435;SDS011;59251;51.326;12.370;2023-07-13T03:34:06;7.67;;;1.50;;
71435;SDS011;59251;51.326;12.370;2023-07-13T03:36:35;6.10;;;1.50;;
71435;SDS011;59251;51.326;12.370;2023-07-13T03:39:05;8.05;;;2.13;;
71435;SDS011;59251;51.326;12.370;2023-07-13T03:41:54;6.82;;;2.00;;
71435;SDS011;59251;51.326;12.370;2023-07-13T03:44:21;6.50;;;1.65;;
71435;SDS011;59251;51.326;12.370;2023-07-13T03:46:52;8.97;;;2.10;;
71435;SDS011;59251;51.326;12.370;2023-07-13T03:49:19;6.47;;;1.88;;
71435;SDS011;59251;51.326;12.370;2023-07-13T03:51:47;8.27;;;1.80;;
71435;SDS011;59251;51.326;12.370;2023-07-13T03:54:14;7.85;;;1.83;;
71435;SDS011;59251;51.326;12.370;2023-07-13T03:56:41;6.68;;;1.92;;
71435;SDS011;59251;51.326;12.370;2023-07-13T03:59:09;6.60;;;1.77;;
71435;SDS011;59251;51.326;12.370;2023-07-13T04:01:36;6.85;;;1.63;;
71435;SDS011;59251;51.326;12.370;2023-07-13T04:04:03;9.45;;;2.10;;
71435;SDS011;59251;51.326;12.370;2023-07-13T04:06:30;7.85;;;1.92;;
71435;SDS011;59251;51.326;12.370;2023-07-13T04:08:59;7.40;;;1.90;;
71435;SDS011;59251;51.326;12.370;2023-07-13T04:11:29;6.67;;;1.80;;
71435;SDS011;59251;51.326;12.370;2023-07-13T04:13:58;6.45;;;2.00;;
71435;SDS011;59251;51.326;12.370;2023-07-13T04:16:26;7.32;;;1.98;;
71435;SDS011;59251;51.326;12.370;2023-07-13T04:18:53;6.30;;;1.88;;
71435;SDS011;59251;51.326;12.370;2023-07-13T04:21:24;8.57;;;1.98;;
71435;SDS011;59251;51.326;12.370;2023-07-13T04:23:52;6.60;;;2.00;;
71435;SDS011;59251;51.326;12.370;2023-07-13T04:26:20;11.60;;;2.08;;
71435;SDS011;59251;51.326;12.370;2023-07-13T04:28:47;6.60;;;1.92;;
71435;SDS011;59251;51.326;12.370;2023-07-13T04:31:14;6.30;;;2.00;;
71435;SDS011;59251;51.326;12.370;2023-07-13T04:33:41;9.15;;;2.15;;
71435;SDS011;59251;51.326;12.370;2023-07-13T04:36:08;7.53;;;1.90;;
71435;SDS011;59251;51.326;12.370;2023-07-13T04:38:35;7.45;;;1.95;;
71435;SDS011;59251;51.326;12.370;2023-07-13T04:41:03;8.70;;;1.92;;
71435;SDS011;59251;51.326;12.370;2023-07-13T04:43:33;8.35;;;1.80;;
71435;SDS011;59251;51.326;12.370;2023-07-13T04:46:03;17.30;;;2.33;;
71435;SDS011;59251;51.326;12.370;2023-07-13T04:48:30;12.13;;;2.47;;
71435;SDS011;59251;51.326;12.370;2023-07-13T04:50:57;8.95;;;2.33;;
71435;SDS011;59251;51.326;12.370;2023-07-13T04:53:25;10.60;;;4.07;;
71435;SDS011;59251;51.326;12.370;2023-07-13T04:55:52;11.02;;;4.07;;
71435;SDS011;59251;51.326;12.370;2023-07-13T04:58:21;7.03;;;2.13;;
71435;SDS011;59251;51.326;12.370;2023-07-13T05:00:49;8.93;;;2.53;;
71435;SDS011;59251;51.326;12.370;2023-07-13T05:03:16;7.63;;;2.38;;
71435;SDS011;59251;51.326;12.370;2023-07-13T05:05:43;7.43;;;2.13;;
71435;SDS011;59251;51.326;12.370;2023-07-13T05:08:21;6.72;;;2.10;;
71435;SDS011;59251;51.326;12.370;2023-07-13T05:10:48;11.02;;;2.40;;
71435;SDS011;59251;51.326;12.370;2023-07-13T05:13:14;8.10;;;2.13;;
71435;SDS011;59251;51.326;12.370;2023-07-13T05:15:41;13.63;;;2.72;;
71435;SDS011;59251;51.326;12.370;2023-07-13T05:18:09;6.78;;;2.00;;
71435;SDS011;59251;51.326;12.370;2023-07-13T05:20:36;7.38;;;2.20;;
71435;SDS011;59251;51.326;12.370;2023-07-13T05:23:02;6.43;;;1.90;;
71435;SDS011;59251;51.326;12.370;2023-07-13T05:25:30;6.77;;;2.10;;
71435;SDS011;59251;51.326;12.370;2023-07-13T05:27:56;10.10;;;2.00;;
71435;SDS011;59251;51.326;12.370;2023-07-13T05:30:23;8.55;;;2.00;;
71435;SDS011;59251;51.326;12.370;2023-07-13T05:32:50;10.05;;;2.28;;
71435;SDS011;59251;51.326;12.370;2023-07-13T05:35:18;6.55;;;2.10;;
71435;SDS011;59251;51.326;12.370;2023-07-13T05:37:44;6.33;;;2.20;;
71435;SDS011;59251;51.326;12.370;2023-07-13T05:40:11;8.88;;;2.42;;
71435;SDS011;59251;51.326;12.370;2023-07-13T05:42:38;7.40;;;1.70;;
71435;SDS011;59251;51.326;12.370;2023-07-13T05:45:05;6.82;;;1.95;;
71435;SDS011;59251;51.326;12.370;2023-07-13T05:47:32;13.40;;;2.53;;
71435;SDS011;59251;51.326;12.370;2023-07-13T05:49:58;8.53;;;2.60;;
71435;SDS011;59251;51.326;12.370;2023-07-13T05:52:26;7.13;;;1.77;;
71435;SDS011;59251;51.326;12.370;2023-07-13T05:54:53;7.50;;;2.17;;
71435;SDS011;59251;51.326;12.370;2023-07-13T05:57:20;8.50;;;1.90;;
71435;SDS011;59251;51.326;12.370;2023-07-13T05:59:46;7.80;;;2.05;;
71435;SDS011;59251;51.326;12.370;2023-07-13T06:02:13;7.03;;;1.80;;
71435;SDS011;59251;51.326;12.370;2023-07-13T06:04:40;8.52;;;2.05;;
71435;SDS011;59251;51.326;12.370;2023-07-13T06:07:07;9.25;;;1.77;;
71435;SDS011;59251;51.326;12.370;2023-07-13T06:09:35;7.70;;;1.80;;
71435;SDS011;59251;51.326;12.370;2023-07-13T06:12:02;6.45;;;1.70;;
71435;SDS011;59251;51.326;12.370;2023-07-13T06:14:29;6.77;;;1.80;;
71435;SDS011;59251;51.326;12.370;2023-07-13T06:16:55;5.80;;;1.95;;
71435;SDS011;59251;51.326;12.370;2023-07-13T06:19:22;7.50;;;1.80;;
71435;SDS011;59251;51.326;12.370;2023-07-13T06:21:49;8.07;;;1.67;;
71435;SDS011;59251;51.326;12.370;2023-07-13T06:24:16;8.57;;;2.30;;
71435;SDS011;59251;51.326;12.370;2023-07-13T06:26:44;7.20;;;2.00;;
71435;SDS011;59251;51.326;12.370;2023-07-13T06:29:10;8.35;;;2.03;;
71435;SDS011;59251;51.326;12.370;2023-07-13T06:31:37;6.03;;;1.80;;
71435;SDS011;59251;51.326;12.370;2023-07-13T06:34:04;10.13;;;2.00;;
71435;SDS011;59251;51.326;12.370;2023-07-13T06:36:30;6.93;;;1.42;;
71435;SDS011;59251;51.326;12.370;2023-07-13T06:38:57;6.47;;;1.40;;
71435;SDS011;59251;51.326;12.370;2023-07-13T06:41:24;8.13;;;1.52;;
71435;SDS011;59251;51.326;12.370;2023-07-13T06:43:52;7.72;;;2.10;;
71435;SDS011;59251;51.326;12.370;2023-07-13T06:46:20;6.18;;;1.60;;
71435;SDS011;59251;51.326;12.370;2023-07-13T06:48:47;7.55;;;1.80;;
71435;SDS011;59251;51.326;12.370;2023-07-13T06:51:14;7.03;;;1.40;;
71435;SDS011;59251;51.326;12.370;2023-07-13T06:53:40;7.38;;;1.40;;
71435;SDS011;59251;51.326;12.370;2023-07-13T06:56:08;5.60;;;1.35;;
71435;SDS011;59251;51.326;12.370;2023-07-13T06:58:35;5.63;;;1.20;;
71435;SDS011;59251;51.326;12.370;2023-07-13T07:01:03;8.00;;;1.58;;
71435;SDS011;59251;51.326;12.370;2023-07-13T07:03:31;6.83;;;1.67;;
71435;SDS011;59251;51.326;12.370;2023-07-13T07:05:59;7.28;;;2.20;;
71435;SDS011;59251;51.326;12.370;2023-07-13T07:08:27;8.80;;;1.77;;
71435;SDS011;59251;51.326;12.370;2023-07-13T07:10:53;7.05;;;1.48;;
71435;SDS011;59251;51.326;12.370;2023-07-13T07:13:20;9.07;;;1.60;;
71435;SDS011;59251;51.326;12.370;2023-07-13T07:15:47;7.33;;;1.40;;
71435;SDS011;59251;51.326;12.370;2023-07-13T07:18:15;6.72;;;1.63;;
71435;SDS011;59251;51.326;12.370;2023-07-13T07:20:41;5.93;;;1.33;;
71435;SDS011;59251;51.326;12.370;2023-07-13T07:23:08;6.10;;;1.30;;
71435;SDS011;59251;51.326;12.370;2023-07-13T07:25:35;6.55;;;1.38;;
71435;SDS011;59251;51.326;12.370;2023-07-13T07:28:07;7.23;;;1.50;;
71435;SDS011;59251;51.326;12.370;2023-07-13T07:30:33;6.13;;;1.50;;
71435;SDS011;59251;51.326;12.370;2023-07-13T07:33:00;6.35;;;1.65;;
71435;SDS011;59251;51.326;12.370;2023-07-13T07:35:28;7.28;;;1.58;;
71435;SDS011;59251;51.326;12.370;2023-07-13T07:37:55;8.10;;;1.58;;
71435;SDS011;59251;51.326;12.370;2023-07-13T07:40:22;6.40;;;1.53;;
71435;SDS011;59251;51.326;12.370;2023-07-13T07:42:48;6.53;;;1.42;;
71435;SDS011;59251;51.326;12.370;2023-07-13T07:45:15;7.57;;;1.40;;
71435;SDS011;59251;51.326;12.370;2023-07-13T07:47:42;7.25;;;1.90;;
71435;SDS011;59251;51.326;12.370;2023-07-13T07:50:09;7.88;;;1.92;;
71435;SDS011;59251;51.326;12.370;2023-07-13T07:52:37;6.37;;;1.43;;
71435;SDS011;59251;51.326;12.370;2023-07-13T07:55:04;6.43;;;1.23;;
71435;SDS011;59251;51.326;12.370;2023-07-13T07:57:33;6.10;;;1.40;;
71435;SDS011;59251;51.326;12.370;2023-07-13T07:59:59;10.95;;;1.60;;
71435;SDS011;59251;51.326;12.370;2023-07-13T08:02:26;7.13;;;1.23;;
71435;SDS011;59251;51.326;12.370;2023-07-13T08:04:53;9.93;;;1.50;;
71435;SDS011;59251;51.326;12.370;2023-07-13T08:07:19;6.80;;;1.20;;
71435;SDS011;59251;51.326;12.370;2023-07-13T08:09:48;8.05;;;1.15;;
71435;SDS011;59251;51.326;12.370;2023-07-13T08:12:17;6.97;;;1.35;;
71435;SDS011;59251;51.326;12.370;2023-07-13T08:14:44;6.75;;;1.15;;
71435;SDS011;59251;51.326;12.370;2023-07-13T08:17:10;6.17;;;1.03;;
71435;SDS011;59251;51.326;12.370;2023-07-13T08:19:37;5.43;;;1.20;;
71435;SDS011;59251;51.326;12.370;2023-07-13T08:22:04;7.55;;;1.50;;
71435;SDS011;59251;51.326;12.370;2023-07-13T08:24:31;6.32;;;1.15;;
71435;SDS011;59251;51.326;12.370;2023-07-13T08:26:59;7.60;;;1.45;;
71435;SDS011;59251;51.326;12.370;2023-07-13T08:29:26;7.03;;;1.40;;
71435;SDS011;59251;51.326;12.370;2023-07-13T08:31:52;7.22;;;1.42;;
71435;SDS011;59251;51.326;12.370;2023-07-13T08:34:19;8.43;;;1.42;;
71435;SDS011;59251;51.326;12.370;2023-07-13T08:36:46;5.70;;;1.38;;
71435;SDS011;59251;51.326;12.370;2023-07-13T08:39:13;7.03;;;1.50;;
71435;SDS011;59251;51.326;12.370;2023-07-13T08:41:39;8.47;;;1.50;;
71435;SDS011;59251;51.326;12.370;2023-07-13T08:44:15;6.30;;;1.30;;
71435;SDS011;59251;51.326;12.370;2023-07-13T08:46:49;9.98;;;1.90;;
71435;SDS011;59251;51.326;12.370;2023-07-13T08:49:19;5.32;;;1.58;;
71435;SDS011;59251;51.326;12.370;2023-07-13T08:51:49;8.10;;;1.27;;
71435;SDS011;59251;51.326;12.370;2023-07-13T08:54:20;9.87;;;1.80;;
71435;SDS011;59251;51.326;12.370;2023-07-13T08:56:50;9.02;;;1.30;;
71435;SDS011;59251;51.326;12.370;2023-07-13T08:59:21;5.40;;;1.17;;
71435;SDS011;59251;51.326;12.370;2023-07-13T09:02:00;8.48;;;1.50;;
71435;SDS011;59251;51.326;12.370;2023-07-13T09:04:45;7.60;;;1.50;;
71435;SDS011;59251;51.326;12.370;2023-07-13T09:07:18;7.23;;;1.50;;
71435;SDS011;59251;51.326;12.370;2023-07-13T09:09:59;7.65;;;1.52;;
71435;SDS011;59251;51.326;12.370;2023-07-13T09:12:38;10.68;;;1.48;;
71435;SDS011;59251;51.326;12.370;2023-07-13T09:15:19;5.78;;;1.58;;
71435;SDS011;59251;51.326;12.370;2023-07-13T09:17:50;7.13;;;1.60;;
71435;SDS011;59251;51.326;12.370;2023-07-13T09:20:22;8.97;;;1.83;;
71435;SDS011;59251;51.326;12.370;2023-07-13T09:22:53;18.75;;;2.30;;
71435;SDS011;59251;51.326;12.370;2023-07-13T09:25:23;9.82;;;1.70;;
71435;SDS011;59251;51.326;12.370;2023-07-13T09:27:53;13.82;;;1.83;;
71435;SDS011;59251;51.326;12.370;2023-07-13T09:30:28;15.73;;;1.95;;
71435;SDS011;59251;51.326;12.370;2023-07-13T09:33:00;6.40;;;1.37;;
71435;SDS011;59251;51.326;12.370;2023-07-13T09:35:27;5.88;;;1.42;;
71435;SDS011;59251;51.326;12.370;2023-07-13T09:37:59;8.23;;;1.90;;
71435;SDS011;59251;51.326;12.370;2023-07-13T09:40:35;8.20;;;1.60;;
71435;SDS011;59251;51.326;12.370;2023-07-13T09:43:07;6.60;;;1.60;;
71435;SDS011;59251;51.326;12.370;2023-07-13T09:45:38;7.77;;;1.70;;
71435;SDS011;59251;51.326;12.370;2023-07-13T09:48:06;6.07;;;1.60;;
71435;SDS011;59251;51.326;12.370;2023-07-13T09:50:39;6.40;;;1.40;;
71435;SDS011;59251;51.326;12.370;2023-07-13T09:53:11;7.15;;;1.48;;
71435;SDS011;59251;51.326;12.370;2023-07-13T09:55:40;7.95;;;1.52;;
71435;SDS011;59251;51.326;12.370;2023-07-13T09:58:09;5.10;;;1.53;;
71435;SDS011;59251;51.326;12.370;2023-07-13T10:00:39;9.07;;;1.35;;
71435;SDS011;59251;51.326;12.370;2023-07-13T10:03:14;7.30;;;1.77;;
71435;SDS011;59251;51.326;12.370;2023-07-13T10:05:44;5.75;;;1.38;;
71435;SDS011;59251;51.326;12.370;2023-07-13T10:08:18;8.90;;;1.50;;
71435;SDS011;59251;51.326;12.370;2023-07-13T10:10:51;5.20;;;1.17;;
71435;SDS011;59251;51.326;12.370;2023-07-13T10:13:32;5.47;;;1.30;;
71435;SDS011;59251;51.326;12.370;2023-07-13T10:16:03;5.75;;;1.30;;
71435;SDS011;59251;51.326;12.370;2023-07-13T10:18:33;9.00;;;1.40;;
71435;SDS011;59251;51.326;12.370;2023-07-13T10:21:10;8.00;;;1.20;;
71435;SDS011;59251;51.326;12.370;2023-07-13T10:23:39;6.33;;;1.03;;
71435;SDS011;59251;51.326;12.370;2023-07-13T10:26:09;4.72;;;1.10;;
71435;SDS011;59251;51.326;12.370;2023-07-13T10:28:41;6.45;;;1.10;;
71435;SDS011;59251;51.326;12.370;2023-07-13T10:31:14;5.38;;;1.10;;
71435;SDS011;59251;51.326;12.370;2023-07-13T10:33:42;5.75;;;1.33;;
71435;SDS011;59251;51.326;12.370;2023-07-13T10:36:13;6.57;;;1.37;;
71435;SDS011;59251;51.326;12.370;2023-07-13T10:38:44;8.43;;;1.30;;
71435;SDS011;59251;51.326;12.370;2023-07-13T10:41:14;8.43;;;2.55;;
71435;SDS011;59251;51.326;12.370;2023-07-13T10:43:45;7.57;;;1.42;;
71435;SDS011;59251;51.326;12.370;2023-07-13T10:46:18;5.35;;;1.38;;
71435;SDS011;59251;51.326;12.370;2023-07-13T10:48:47;10.40;;;1.53;;
71435;SDS011;59251;51.326;12.370;2023-07-13T10:51:17;7.13;;;1.55;;
71435;SDS011;59251;51.326;12.370;2023-07-13T10:53:46;5.88;;;1.30;;
71435;SDS011;59251;51.326;12.370;2023-07-13T10:56:19;5.85;;;1.10;;
71435;SDS011;59251;51.326;12.370;2023-07-13T10:59:01;5.57;;;1.20;;
71435;SDS011;59251;51.326;12.370;2023-07-13T11:01:40;6.83;;;1.30;;
71435;SDS011;59251;51.326;12.370;2023-07-13T11:04:14;8.38;;;1.30;;
71435;SDS011;59251;51.326;12.370;2023-07-13T11:06:42;5.25;;;1.00;;
71435;SDS011;59251;51.326;12.370;2023-07-13T11:12:01;7.03;;;1.10;;
71435;SDS011;59251;51.326;12.370;2023-07-13T11:14:34;6.73;;;1.10;;
71435;SDS011;59251;51.326;12.370;2023-07-13T11:20:08;5.57;;;1.20;;
71435;SDS011;59251;51.326;12.370;2023-07-13T11:22:47;6.13;;;1.40;;
71435;SDS011;59251;51.326;12.370;2023-07-13T11:25:25;5.25;;;1.13;;
71435;SDS011;59251;51.326;12.370;2023-07-13T11:28:04;6.10;;;1.20;;
71435;SDS011;59251;51.326;12.370;2023-07-13T11:30:36;6.32;;;1.40;;
71435;SDS011;59251;51.326;12.370;2023-07-13T11:33:13;7.28;;;1.33;;
71435;SDS011;59251;51.326;12.370;2023-07-13T11:35:44;5.47;;;1.10;;
71435;SDS011;59251;51.326;12.370;2023-07-13T11:38:16;5.90;;;1.40;;
71435;SDS011;59251;51.326;12.370;2023-07-13T11:40:45;6.30;;;1.30;;
71435;SDS011;59251;51.326;12.370;2023-07-13T11:43:13;6.07;;;1.42;;
71435;SDS011;59251;51.326;12.370;2023-07-13T11:45:41;6.80;;;1.23;;
71435;SDS011;59251;51.326;12.370;2023-07-13T11:48:23;5.32;;;0.98;;
71435;SDS011;59251;51.326;12.370;2023-07-13T11:50:54;5.75;;;1.23;;
71435;SDS011;59251;51.326;12.370;2023-07-13T11:53:25;5.70;;;1.00;;
71435;SDS011;59251;51.326;12.370;2023-07-13T11:55:53;6.53;;;1.63;;
71435;SDS011;59251;51.326;12.370;2023-07-13T11:58:21;5.32;;;1.30;;
71435;SDS011;59251;51.326;12.370;2023-07-13T12:00:50;7.07;;;1.45;;
71435;SDS011;59251;51.326;12.370;2023-07-13T12:03:21;5.28;;;0.90;;
71435;SDS011;59251;51.326;12.370;2023-07-13T12:05:59;7.57;;;1.20;;
71435;SDS011;59251;51.326;12.370;2023-07-13T12:08:27;6.03;;;1.02;;
71435;SDS011;59251;51.326;12.370;2023-07-13T12:11:03;5.75;;;1.00;;
71435;SDS011;59251;51.326;12.370;2023-07-13T12:13:35;6.68;;;0.98;;
71435;SDS011;59251;51.326;12.370;2023-07-13T12:16:02;6.25;;;1.08;;
71435;SDS011;59251;51.326;12.370;2023-07-13T12:18:38;5.10;;;1.10;;
71435;SDS011;59251;51.326;12.370;2023-07-13T12:21:10;5.57;;;1.20;;
71435;SDS011;59251;51.326;12.370;2023-07-13T12:23:39;5.85;;;1.15;;
71435;SDS011;59251;51.326;12.370;2023-07-13T12:26:10;6.07;;;1.30;;
71435;SDS011;59251;51.326;12.370;2023-07-13T12:28:38;5.30;;;1.10;;
71435;SDS011;59251;51.326;12.370;2023-07-13T12:31:22;6.13;;;1.23;;
71435;SDS011;59251;51.326;12.370;2023-07-13T12:33:57;5.85;;;1.20;;
71435;SDS011;59251;51.326;12.370;2023-07-13T12:36:25;9.55;;;1.55;;
71435;SDS011;59251;51.326;12.370;2023-07-13T12:38:54;8.07;;;1.15;;
71435;SDS011;59251;51.326;12.370;2023-07-13T12:41:21;5.32;;;1.00;;
71435;SDS011;59251;51.326;12.370;2023-07-13T12:43:49;5.07;;;1.30;;
71435;SDS011;59251;51.326;12.370;2023-07-13T12:46:17;5.05;;;1.20;;
71435;SDS011;59251;51.326;12.370;2023-07-13T12:48:48;7.30;;;1.08;;
71435;SDS011;59251;51.326;12.370;2023-07-13T12:51:17;5.90;;;1.10;;
71435;SDS011;59251;51.326;12.370;2023-07-13T12:53:48;5.32;;;1.30;;
71435;SDS011;59251;51.326;12.370;2023-07-13T12:56:19;6.00;;;1.00;;
71435;SDS011;59251;51.326;12.370;2023-07-13T12:58:49;6.93;;;1.05;;
71435;SDS011;59251;51.326;12.370;2023-07-13T13:01:20;4.60;;;0.90;;
71435;SDS011;59251;51.326;12.370;2023-07-13T13:03:48;5.20;;;1.13;;
71435;SDS011;59251;51.326;12.370;2023-07-13T13:06:21;6.57;;;1.40;;
71435;SDS011;59251;51.326;12.370;2023-07-13T13:08:50;4.93;;;1.00;;
71435;SDS011;59251;51.326;12.370;2023-07-13T13:11:19;4.82;;;1.20;;
71435;SDS011;59251;51.326;12.370;2023-07-13T13:13:48;9.02;;;1.25;;
71435;SDS011;59251;51.326;12.370;2023-07-13T13:16:17;7.28;;;1.17;;
71435;SDS011;59251;51.326;12.370;2023-07-13T13:18:47;4.18;;;0.82;;
71435;SDS011;59251;51.326;12.370;2023-07-13T13:21:14;5.97;;;1.30;;
71435;SDS011;59251;51.326;12.370;2023-07-13T13:23:43;7.47;;;1.85;;
71435;SDS011;59251;51.326;12.370;2023-07-13T13:26:11;4.30;;;1.10;;
71435;SDS011;59251;51.326;12.370;2023-07-13T13:28:40;5.75;;;1.45;;
71435;SDS011;59251;51.326;12.370;2023-07-13T13:31:07;5.32;;;1.05;;
71435;SDS011;59251;51.326;12.370;2023-07-13T13:33:37;6.27;;;1.10;;
71435;SDS011;59251;51.326;12.370;2023-07-13T13:36:09;5.90;;;1.48;;
71435;SDS011;59251;51.326;12.370;2023-07-13T13:38:40;6.65;;;1.10;;
71435;SDS011;59251;51.326;12.370;2023-07-13T13:41:09;5.30;;;1.00;;
71435;SDS011;59251;51.326;12.370;2023-07-13T13:43:36;6.35;;;0.98;;
71435;SDS011;59251;51.326;12.370;2023-07-13T13:46:09;5.40;;;1.30;;
71435;SDS011;59251;51.326;12.370;2023-07-13T13:48:40;5.50;;;1.20;;
71435;SDS011;59251;51.326;12.370;2023-07-13T13:51:13;5.97;;;1.60;;
71435;SDS011;59251;51.326;12.370;2023-07-13T13:53:42;4.70;;;1.10;;
71435;SDS011;59251;51.326;12.370;2023-07-13T13:56:11;8.00;;;1.27;;
71435;SDS011;59251;51.326;12.370;2023-07-13T13:58:38;5.23;;;1.30;;
71435;SDS011;59251;51.326;12.370;2023-07-13T14:01:05;5.05;;;1.40;;
71435;SDS011;59251;51.326;12.370;2023-07-13T14:03:39;5.82;;;1.35;;
71435;SDS011;59251;51.326;12.370;2023-07-13T14:06:07;5.40;;;1.10;;
71435;SDS011;59251;51.326;12.370;2023-07-13T14:08:36;6.50;;;1.38;;
71435;SDS011;59251;51.326;12.370;2023-07-13T14:11:03;4.70;;;1.20;;
71435;SDS011;59251;51.326;12.370;2023-07-13T14:13:32;6.00;;;1.30;;
71435;SDS011;59251;51.326;12.370;2023-07-13T14:16:05;5.78;;;1.60;;
71435;SDS011;59251;51.326;12.370;2023-07-13T14:18:37;7.13;;;1.35;;
71435;SDS011;59251;51.326;12.370;2023-07-13T14:21:04;6.03;;;1.20;;
71435;SDS011;59251;51.326;12.370;2023-07-13T14:23:38;5.83;;;1.20;;
71435;SDS011;59251;51.326;12.370;2023-07-13T14:26:07;6.80;;;1.20;;
71435;SDS011;59251;51.326;12.370;2023-07-13T14:28:38;6.88;;;1.33;;
71435;SDS011;59251;51.326;12.370;2023-07-13T14:31:07;4.78;;;1.13;;
71435;SDS011;59251;51.326;12.370;2023-07-13T14:33:34;4.57;;;1.38;;
71435;SDS011;59251;51.326;12.370;2023-07-13T14:36:01;5.13;;;1.13;;
71435;SDS011;59251;51.326;12.370;2023-07-13T14:38:28;5.10;;;1.17;;
71435;SDS011;59251;51.326;12.370;2023-07-13T14:40:55;5.43;;;1.33;;
71435;SDS011;59251;51.326;12.370;2023-07-13T14:43:21;7.05;;;1.20;;
71435;SDS011;59251;51.326;12.370;2023-07-13T14:45:51;6.18;;;1.40;;
71435;SDS011;59251;51.326;12.370;2023-07-13T14:48:18;7.83;;;1.20;;
71435;SDS011;59251;51.326;12.370;2023-07-13T14:50:49;6.47;;;1.15;;